Time;durP1;ratioP1;P1;durP2;ratioP2;P2;SDS_P1;SDS_P2;PMS_P1;PMS_P2;Temp;Humidity;BMP_temperature;BMP_pressure;BME280_temperature;BME280_humidity;BME280_pressure;Samples;Min_cycle;Max_cycle;Signal;HPM_P1;HPM_P2
2022/08/21 00:02:27;;;;;;;2.28;0.65;;;24.10;71.40;;;;;;5055666;28;20029;-77
2022/08/21 00:04:54;;;;;;;1.60;0.80;;;24.10;70.80;;;;;;5054931;28;20032;-78
2022/08/21 00:07:20;;;;;;;1.77;0.70;;;24.00;70.70;;;;;;5055489;28;20032;-78
2022/08/21 00:09:46;;;;;;;3.22;0.75;;;24.10;70.80;;;;;;5055332;28;20025;-78
2022/08/21 00:12:11;;;;;;;1.83;0.68;;;24.10;70.80;;;;;;5055690;28;20029;-78
2022/08/21 00:14:38;;;;;;;2.00;0.80;;;24.00;70.80;;;;;;5055341;28;20109;-78
2022/08/21 00:17:04;;;;;;;1.95;0.73;;;24.00;70.70;;;;;;5055748;28;20021;-78
2022/08/21 00:19:31;;;;;;;1.42;0.40;;;24.10;70.80;;;;;;5054967;28;20037;-78
2022/08/21 00:21:56;;;;;;;3.22;0.60;;;24.10;70.70;;;;;;5055495;28;20025;-78
2022/08/21 00:24:23;;;;;;;1.58;0.70;;;24.00;70.80;;;;;;5054992;28;20047;-78
2022/08/21 00:26:50;;;;;;;2.00;0.70;;;24.00;70.70;;;;;;5054906;28;20029;-78
2022/08/21 00:29:15;;;;;;;1.17;0.47;;;23.90;70.90;;;;;;5055434;28;20025;-78
2022/08/21 00:31:42;;;;;;;1.98;0.55;;;23.90;71.00;;;;;;5055024;28;20024;-78
2022/08/21 00:34:10;;;;;;;1.25;0.50;;;23.90;71.10;;;;;;5054967;28;20473;-78
2022/08/21 00:36:35;;;;;;;1.13;0.57;;;23.90;71.10;;;;;;5055292;28;20031;-77
2022/08/21 00:39:03;;;;;;;2.08;0.60;;;23.90;71.20;;;;;;5054717;28;20119;-78
2022/08/21 00:41:28;;;;;;;1.48;0.50;;;23.90;71.10;;;;;;5054944;28;20029;-78
2022/08/21 00:43:55;;;;;;;1.67;0.75;;;23.90;71.10;;;;;;5055031;28;20036;-78
2022/08/21 00:46:21;;;;;;;2.63;0.68;;;23.90;71.10;;;;;;5054846;28;20440;-78
2022/08/21 00:48:47;;;;;;;2.20;0.60;;;23.90;71.20;;;;;;5054726;28;20025;-78
2022/08/21 00:51:47;;;;;;;1.05;0.50;;;23.90;71.30;;;;;;5054990;28;20051;-78
2022/08/21 00:54:14;;;;;;;3.78;0.82;;;23.90;71.20;;;;;;5049928;28;20110;-78
2022/08/21 00:56:40;;;;;;;1.50;0.55;;;23.90;71.20;;;;;;5054650;28;20029;-78
2022/08/21 00:59:06;;;;;;;1.88;0.70;;;23.80;71.20;;;;;;5054700;28;20488;-78
2022/08/21 01:01:32;;;;;;;2.15;0.70;;;23.80;71.30;;;;;;5054839;28;20033;-78
2022/08/21 01:03:58;;;;;;;1.40;0.63;;;23.80;71.80;;;;;;5054779;28;20032;-77
2022/08/21 01:06:24;;;;;;;2.50;0.85;;;23.80;71.30;;;;;;5054527;28;20025;-78
2022/08/21 01:08:50;;;;;;;1.33;0.65;;;23.80;71.30;;;;;;5054701;28;20047;-78
2022/08/21 01:11:16;;;;;;;2.83;0.60;;;23.80;71.30;;;;;;5054281;28;20494;-78
2022/08/21 01:13:45;;;;;;;1.27;0.50;;;23.80;71.30;;;;;;5054244;28;20033;-78
2022/08/21 01:16:15;;;;;;;2.33;0.65;;;23.80;71.30;;;;;;5054220;28;20029;-78
2022/08/21 01:18:41;;;;;;;3.90;1.00;;;23.80;71.30;;;;;;5054391;28;20041;-78
2022/08/21 01:21:13;;;;;;;2.33;0.90;;;23.90;71.30;;;;;;5054299;28;20017;-78
2022/08/21 01:23:43;;;;;;;1.75;0.55;;;23.80;71.20;;;;;;5054239;28;20147;-78
2022/08/21 01:26:10;;;;;;;2.78;0.43;;;23.80;71.20;;;;;;5054111;28;20025;-78
2022/08/21 01:28:40;;;;;;;1.30;0.50;;;23.80;71.80;;;;;;5053777;28;20031;-78
2022/08/21 01:31:08;;;;;;;1.50;0.63;;;23.80;71.30;;;;;;5054223;28;20081;-78
2022/08/21 01:33:34;;;;;;;1.45;0.80;;;23.80;71.30;;;;;;5054043;28;20071;-78
2022/08/21 01:35:59;;;;;;;1.65;0.57;;;23.80;71.30;;;;;;5054398;28;20460;-78
2022/08/21 01:38:25;;;;;;;3.22;0.70;;;23.80;71.40;;;;;;5053935;28;20082;-78
2022/08/21 01:40:51;;;;;;;1.50;0.47;;;23.80;71.40;;;;;;5053532;28;20033;-78
2022/08/21 01:43:16;;;;;;;2.53;0.80;;;23.70;71.50;;;;;;5053065;28;20029;-78
2022/08/21 01:45:42;;;;;;;1.80;0.80;;;23.70;71.50;;;;;;5053944;28;20029;-78
2022/08/21 01:48:08;;;;;;;1.67;0.57;;;23.70;71.50;;;;;;5053332;28;20456;-78
2022/08/21 01:50:34;;;;;;;2.45;0.40;;;23.70;71.40;;;;;;5053674;28;20029;-78
2022/08/21 01:53:00;;;;;;;1.92;0.73;;;23.70;71.50;;;;;;5053865;28;20096;-78
2022/08/21 01:55:26;;;;;;;1.00;0.55;;;23.60;71.50;;;;;;5053552;28;20072;-78
2022/08/21 01:57:52;;;;;;;1.88;0.85;;;23.60;71.60;;;;;;5053848;28;20033;-78
2022/08/21 02:00:22;;;;;;;1.50;0.70;;;23.60;71.60;;;;;;5053675;28;20037;-78
2022/08/21 02:02:49;;;;;;;1.42;0.70;;;23.60;71.70;;;;;;5053274;28;20376;-78
2022/08/21 02:05:15;;;;;;;1.70;0.65;;;23.60;71.70;;;;;;5053563;28;20040;-78
2022/08/21 02:07:47;;;;;;;1.20;0.40;;;23.60;71.70;;;;;;5053412;28;20025;-78
2022/08/21 02:10:16;;;;;;;1.02;0.60;;;23.60;71.70;;;;;;5053054;28;20029;-78
2022/08/21 02:12:42;;;;;;;1.90;0.85;;;23.60;71.70;;;;;;5053149;28;20024;-78
2022/08/21 02:15:09;;;;;;;1.38;0.70;;;23.50;71.70;;;;;;5053524;28;20103;-78
2022/08/21 02:17:46;;;;;;;1.60;0.73;;;23.50;71.90;;;;;;5053356;28;20025;-78
2022/08/21 02:20:27;;;;;;;2.30;0.80;;;23.50;72.10;;;;;;5053191;28;20029;-78
2022/08/21 02:22:54;;;;;;;0.98;0.50;;;23.50;72.00;;;;;;5053223;28;20096;-78
2022/08/21 02:25:21;;;;;;;1.20;0.60;;;23.50;72.00;;;;;;5053045;28;20076;-78
2022/08/21 02:27:47;;;;;;;2.50;0.80;;;23.40;72.10;;;;;;5053335;28;20021;-78
2022/08/21 02:30:35;;;;;;;2.53;0.93;;;23.40;72.20;;;;;;5053068;28;20445;-78
2022/08/21 02:33:01;;;;;;;2.10;0.73;;;23.40;72.30;;;;;;5052863;28;20542;-78
2022/08/21 02:35:27;;;;;;;1.73;0.93;;;23.50;72.30;;;;;;5053356;28;20017;-78
2022/08/21 02:37:55;;;;;;;1.88;0.90;;;23.40;71.70;;;;;;5053012;28;20491;-78
2022/08/21 02:40:24;;;;;;;2.30;1.10;;;23.40;71.90;;;;;;5053020;28;20525;-77
2022/08/21 02:42:50;;;;;;;3.08;0.98;;;23.30;71.20;;;;;;5053284;28;20021;-78
2022/08/21 02:45:17;;;;;;;2.45;1.25;;;23.20;71.80;;;;;;5052958;28;20065;-78
2022/08/21 02:48:01;;;;;;;2.80;0.85;;;23.20;72.50;;;;;;5053268;28;20025;-78
2022/08/21 02:50:29;;;;;;;1.85;0.77;;;23.20;72.30;;;;;;5052865;28;20027;-78
2022/08/21 02:52:55;;;;;;;1.48;0.60;;;23.20;72.50;;;;;;5053222;28;20029;-78
2022/08/21 02:55:23;;;;;;;4.22;1.27;;;23.20;72.60;;;;;;5055955;28;20392;-78
2022/08/21 02:57:49;;;;;;;1.73;0.75;;;23.20;72.60;;;;;;5057120;28;20112;-78
2022/08/21 03:00:15;;;;;;;1.83;0.90;;;23.10;72.60;;;;;;5057004;28;20139;-78
2022/08/21 03:02:41;;;;;;;1.58;0.70;;;23.10;72.80;;;;;;5057103;28;20055;-78
2022/08/21 03:05:09;;;;;;;3.85;1.17;;;23.10;72.80;;;;;;5056768;28;20025;-78
2022/08/21 03:07:36;;;;;;;1.02;0.52;;;23.10;72.80;;;;;;5056803;28;20108;-78
2022/08/21 03:10:03;;;;;;;1.75;0.80;;;23.20;72.90;;;;;;5056619;28;20028;-78
2022/08/21 03:12:29;;;;;;;2.85;0.80;;;23.20;72.90;;;;;;5056488;28;20492;-78
2022/08/21 03:14:54;;;;;;;2.42;1.00;;;23.20;72.90;;;;;;5056541;28;20033;-78
2022/08/21 03:17:20;;;;;;;1.65;0.80;;;23.20;72.90;;;;;;5056568;28;20033;-78
2022/08/21 03:19:46;;;;;;;2.20;0.80;;;23.20;73.50;;;;;;5056689;28;20079;-78
2022/08/21 03:22:11;;;;;;;1.88;0.77;;;23.20;72.90;;;;;;5056464;28;20218;-78
2022/08/21 03:24:37;;;;;;;1.35;0.63;;;23.20;73.00;;;;;;5056302;28;20060;-78
2022/08/21 03:27:03;;;;;;;1.45;0.60;;;23.20;73.00;;;;;;5056224;28;20013;-78
2022/08/21 03:29:28;;;;;;;1.55;0.50;;;23.20;73.00;;;;;;5056115;28;20380;-78
2022/08/21 03:31:54;;;;;;;2.22;0.93;;;23.20;73.00;;;;;;5056219;28;20075;-78
2022/08/21 03:34:21;;;;;;;1.92;0.90;;;23.20;73.10;;;;;;5056324;28;20075;-78
2022/08/21 03:36:48;;;;;;;4.38;1.38;;;23.20;73.10;;;;;;5056276;28;20017;-78
2022/08/21 03:39:15;;;;;;;1.73;1.00;;;23.20;72.90;;;;;;5056068;28;20468;-79
2022/08/21 03:41:41;;;;;;;1.83;1.00;;;23.20;72.90;;;;;;5055989;28;20147;-78
2022/08/21 03:44:06;;;;;;;1.65;0.52;;;23.20;73.00;;;;;;5056185;28;20093;-78
2022/08/21 03:46:32;;;;;;;1.40;0.55;;;23.20;72.90;;;;;;5056222;28;20029;-78
2022/08/21 03:49:00;;;;;;;1.48;0.80;;;23.20;73.00;;;;;;5056083;28;20104;-78
2022/08/21 03:51:26;;;;;;;2.17;0.80;;;23.20;73.00;;;;;;5055832;28;20031;-78
2022/08/21 03:53:52;;;;;;;1.63;1.00;;;23.10;72.90;;;;;;5056162;28;20112;-78
2022/08/21 03:56:18;;;;;;;1.58;0.80;;;23.10;73.00;;;;;;5055735;28;20484;-78
2022/08/21 03:58:44;;;;;;;2.63;1.30;;;23.10;73.10;;;;;;5055954;28;20029;-78
2022/08/21 04:01:10;;;;;;;3.38;1.85;;;23.10;73.10;;;;;;5055739;28;20021;-78
2022/08/21 04:03:37;;;;;;;1.45;0.73;;;23.10;73.00;;;;;;5055799;28;20029;-78
2022/08/21 04:06:04;;;;;;;1.88;0.70;;;23.00;73.10;;;;;;5054955;28;20057;-78
2022/08/21 04:08:30;;;;;;;1.42;0.50;;;23.00;73.20;;;;;;5055279;28;20103;-78
2022/08/21 04:10:58;;;;;;;1.80;0.80;;;23.00;73.30;;;;;;5055678;28;20033;-78
2022/08/21 04:13:27;;;;;;;2.10;0.80;;;23.00;73.20;;;;;;5055747;28;20100;-78
2022/08/21 04:15:54;;;;;;;2.53;1.00;;;23.00;73.30;;;;;;5055488;28;20507;-78
2022/08/21 04:18:20;;;;;;;2.03;1.02;;;23.00;73.30;;;;;;5054967;28;20553;-78
2022/08/21 04:20:49;;;;;;;1.10;0.60;;;22.90;73.40;;;;;;5055696;28;20060;-78
2022/08/21 04:23:15;;;;;;;3.08;1.70;;;22.90;73.50;;;;;;5055190;28;20032;-78
2022/08/21 04:25:40;;;;;;;2.15;1.00;;;22.90;73.50;;;;;;5054892;28;20049;-78
2022/08/21 04:28:06;;;;;;;1.63;0.75;;;22.80;73.70;;;;;;5055537;28;20104;-78
2022/08/21 04:30:33;;;;;;;2.28;0.82;;;22.90;73.70;;;;;;5055097;28;20025;-78
2022/08/21 04:32:59;;;;;;;1.27;0.70;;;22.80;73.60;;;;;;5055347;28;20029;-78
2022/08/21 04:35:26;;;;;;;2.45;1.35;;;22.90;73.80;;;;;;5055210;28;20395;-78
2022/08/21 04:37:52;;;;;;;3.38;1.65;;;22.80;73.50;;;;;;5054697;28;20527;-78
2022/08/21 04:40:21;;;;;;;2.08;0.98;;;22.70;73.10;;;;;;5054903;28;20036;-78
2022/08/21 04:42:53;;;;;;;1.95;1.38;;;22.60;73.80;;;;;;5054882;28;20473;-78
2022/08/21 04:45:24;;;;;;;2.92;1.13;;;22.50;74.00;;;;;;5055042;28;20037;-78
2022/08/21 04:47:56;;;;;;;1.40;1.00;;;22.60;74.40;;;;;;5055224;28;20048;-78
2022/08/21 04:50:30;;;;;;;1.60;0.90;;;22.60;74.30;;;;;;5054888;28;20028;-78
2022/08/21 04:52:56;;;;;;;1.55;1.00;;;22.60;74.40;;;;;;5054693;28;20481;-78
2022/08/21 04:55:23;;;;;;;3.67;0.90;;;22.60;74.30;;;;;;5055057;28;20029;-78
2022/08/21 04:57:50;;;;;;;2.20;0.85;;;22.70;74.40;;;;;;5054643;28;20029;-78
2022/08/21 05:00:18;;;;;;;2.72;0.73;;;22.70;74.50;;;;;;5054744;28;20084;-78
2022/08/21 05:02:45;;;;;;;2.53;0.98;;;22.70;74.40;;;;;;5054564;28;20063;-78
2022/08/21 05:05:11;;;;;;;1.40;0.80;;;22.70;74.40;;;;;;5054370;28;20029;-78
2022/08/21 05:07:37;;;;;;;1.35;0.90;;;22.70;74.40;;;;;;5054694;28;20031;-78
2022/08/21 05:10:03;;;;;;;2.28;1.00;;;22.70;74.40;;;;;;5054219;28;20495;-78
2022/08/21 05:12:31;;;;;;;1.95;0.88;;;22.70;74.40;;;;;;5054334;28;20029;-78
2022/08/21 05:14:57;;;;;;;1.40;0.60;;;22.70;74.50;;;;;;5054708;28;20059;-78
2022/08/21 05:17:23;;;;;;;1.35;0.75;;;22.70;74.40;;;;;;5053760;28;20021;-78
2022/08/21 05:19:48;;;;;;;2.80;1.52;;;22.80;74.40;;;;;;5054175;28;20083;-78
2022/08/21 05:22:24;;;;;;;1.30;0.82;;;22.70;74.30;;;;;;5054406;28;20028;-79
2022/08/21 05:24:50;;;;;;;2.70;1.05;;;22.80;74.30;;;;;;5053916;28;20512;-78
2022/08/21 05:27:16;;;;;;;1.23;0.80;;;22.80;74.30;;;;;;5054061;28;20021;-78
2022/08/21 05:29:42;;;;;;;2.28;1.27;;;22.80;74.30;;;;;;5054264;28;20035;-78
2022/08/21 05:32:10;;;;;;;2.35;1.10;;;22.80;74.30;;;;;;5054050;28;20025;-78
2022/08/21 05:34:36;;;;;;;2.92;1.20;;;22.80;74.40;;;;;;5053861;28;20029;-78
2022/08/21 05:37:02;;;;;;;2.78;1.30;;;22.80;74.30;;;;;;5054224;28;20542;-78
2022/08/21 05:39:28;;;;;;;3.67;1.42;;;22.80;74.30;;;;;;5054323;28;20033;-78
2022/08/21 05:41:53;;;;;;;1.70;1.05;;;22.80;74.30;;;;;;5053865;28;20025;-78
2022/08/21 05:44:19;;;;;;;3.88;1.77;;;22.80;74.30;;;;;;5053884;28;20464;-78
2022/08/21 05:46:45;;;;;;;3.33;1.33;;;22.80;74.30;;;;;;5053468;28;20021;-78
2022/08/21 05:49:11;;;;;;;4.05;2.10;;;22.80;74.20;;;;;;5053992;28;20376;-78
2022/08/21 05:51:36;;;;;;;7.30;5.07;;;22.80;74.20;;;;;;5053541;28;20433;-78
2022/08/21 05:54:03;;;;;;;8.07;5.22;;;22.80;73.50;;;;;;5053738;28;20029;-78
2022/08/21 05:56:28;;;;;;;5.65;3.88;;;22.60;73.20;;;;;;5053374;28;20032;-78
2022/08/21 05:58:55;;;;;;;6.15;4.78;;;22.30;73.50;;;;;;5053487;28;20036;-78
2022/08/21 06:01:21;;;;;;;7.35;5.20;;;22.20;74.30;;;;;;5053442;28;20060;-78
2022/08/21 06:03:47;;;;;;;6.88;3.58;;;21.90;74.60;;;;;;5053751;28;20358;-78
2022/08/21 06:06:12;;;;;;;7.05;4.05;;;21.80;75.30;;;;;;5053493;28;20025;-77
2022/08/21 06:08:38;;;;;;;9.52;5.25;;;21.70;75.70;;;;;;5053352;28;20021;-77
2022/08/21 06:11:05;;;;;;;7.32;5.22;;;21.50;76.00;;;;;;5053740;28;20025;-77
2022/08/21 06:13:31;;;;;;;9.55;6.07;;;21.40;76.60;;;;;;5053626;28;20100;-77
2022/08/21 06:16:07;;;;;;;9.05;5.60;;;21.30;77.00;;;;;;5053253;28;20025;-77
2022/08/21 06:18:33;;;;;;;6.22;3.90;;;21.20;77.40;;;;;;5052992;28;20523;-77
2022/08/21 06:20:59;;;;;;;10.63;6.25;;;21.20;77.50;;;;;;5053245;28;20029;-77
2022/08/21 06:23:25;;;;;;;7.63;3.90;;;21.20;77.70;;;;;;5053076;28;20085;-77
2022/08/21 06:25:50;;;;;;;8.63;4.47;;;21.10;78.00;;;;;;5053475;28;20052;-77
2022/08/21 06:28:16;;;;;;;11.15;6.72;;;21.10;78.30;;;;;;5052952;28;20064;-77
2022/08/21 06:30:42;;;;;;;7.60;4.85;;;21.00;78.60;;;;;;5053178;28;20032;-78
2022/08/21 06:33:07;;;;;;;9.55;5.80;;;20.90;78.90;;;;;;5052785;28;20021;-77
2022/08/21 06:35:34;;;;;;;7.85;4.95;;;20.90;79.20;;;;;;5053353;28;20024;-77
2022/08/21 06:38:00;;;;;;;8.40;4.20;;;20.80;79.20;;;;;;5053381;28;20100;-77
2022/08/21 06:40:27;;;;;;;11.25;6.60;;;20.80;79.50;;;;;;5053101;28;20478;-77
2022/08/21 06:42:53;;;;;;;9.52;4.53;;;20.70;79.40;;;;;;5053012;28;20119;-77
2022/08/21 06:45:18;;;;;;;10.63;4.72;;;20.60;79.80;;;;;;5053267;28;20046;-77
2022/08/21 06:47:44;;;;;;;9.95;5.22;;;20.60;80.50;;;;;;5053297;28;20409;-77
2022/08/21 06:50:10;;;;;;;10.43;3.15;;;20.60;80.80;;;;;;5053011;28;20464;-77
2022/08/21 06:52:37;;;;;;;11.82;4.63;;;20.60;81.10;;;;;;5052668;28;20118;-77
2022/08/21 06:55:06;;;;;;;7.65;4.40;;;20.60;81.20;;;;;;5052657;28;20366;-77
2022/08/21 06:57:32;;;;;;;6.15;3.35;;;20.70;81.30;;;;;;5052660;28;20017;-77
2022/08/21 06:59:57;;;;;;;17.55;6.03;;;20.80;82.10;;;;;;5052789;28;20095;-77
2022/08/21 07:02:23;;;;;;;7.10;3.40;;;20.80;81.50;;;;;;5053120;28;20120;-77
2022/08/21 07:04:48;;;;;;;10.82;4.57;;;20.90;81.30;;;;;;5052693;28;20025;-78
2022/08/21 07:07:14;;;;;;;9.85;5.05;;;21.00;81.20;;;;;;5052813;28;20042;-77
2022/08/21 07:09:39;;;;;;;11.77;5.28;;;21.10;81.50;;;;;;5052801;28;20035;-77
2022/08/21 07:12:05;;;;;;;6.05;2.28;;;21.10;81.70;;;;;;5052643;28;20048;-77
2022/08/21 07:14:31;;;;;;;8.45;2.97;;;21.20;81.60;;;;;;5052961;28;20115;-77
2022/08/21 07:16:57;;;;;;;10.38;4.85;;;21.30;81.50;;;;;;5052447;28;20354;-77
2022/08/21 07:19:23;;;;;;;11.73;4.75;;;21.40;80.80;;;;;;5052620;28;20033;-77
2022/08/21 07:21:48;;;;;;;10.07;3.95;;;21.40;80.60;;;;;;5052914;28;20177;-77
2022/08/21 07:24:14;;;;;;;10.50;4.07;;;21.40;80.60;;;;;;5052530;28;20504;-77
2022/08/21 07:26:40;;;;;;;13.10;5.80;;;21.50;80.80;;;;;;5052244;28;20021;-77
2022/08/21 07:29:05;;;;;;;13.85;5.35;;;21.50;80.60;;;;;;5052787;28;20108;-77
2022/08/21 07:31:31;;;;;;;8.30;3.55;;;21.50;80.50;;;;;;5052794;28;20044;-77
2022/08/21 07:33:58;;;;;;;12.95;5.07;;;21.50;80.80;;;;;;5052665;28;20532;-77
2022/08/21 07:36:23;;;;;;;9.50;4.47;;;21.50;81.10;;;;;;5052566;28;20029;-77
2022/08/21 07:38:49;;;;;;;7.18;3.45;;;21.60;81.30;;;;;;5052391;28;20048;-77
2022/08/21 07:41:18;;;;;;;10.52;4.82;;;21.50;81.50;;;;;;5053669;28;20131;-77
2022/08/21 07:43:45;;;;;;;11.02;4.13;;;21.60;81.30;;;;;;5056249;28;20044;-77
2022/08/21 07:46:11;;;;;;;10.05;3.40;;;21.70;81.20;;;;;;5056137;28;20032;-77
2022/08/21 07:48:37;;;;;;;5.45;2.25;;;21.90;81.10;;;;;;5055834;28;20047;-77
2022/08/21 07:51:11;;;;;;;13.60;4.82;;;22.00;81.10;;;;;;5055922;28;20446;-77
2022/08/21 07:53:37;;;;;;;6.57;3.72;;;22.10;81.30;;;;;;5056472;28;20025;-77
2022/08/21 07:56:05;;;;;;;13.68;4.57;;;22.20;80.80;;;;;;5055930;28;20028;-77
2022/08/21 07:58:31;;;;;;;10.95;4.07;;;22.30;80.50;;;;;;5055690;28;20025;-77
2022/08/21 08:00:57;;;;;;;12.40;4.55;;;22.30;80.40;;;;;;5055970;28;20123;-77
2022/08/21 08:03:23;;;;;;;11.25;4.13;;;22.20;80.60;;;;;;5055749;28;20049;-77
2022/08/21 08:05:49;;;;;;;12.13;4.53;;;22.10;80.90;;;;;;5055576;28;20036;-77
2022/08/21 08:08:15;;;;;;;8.82;4.28;;;22.10;81.60;;;;;;5055381;28;20021;-77
2022/08/21 08:10:41;;;;;;;16.45;5.05;;;21.90;81.80;;;;;;5055796;28;20028;-77
2022/08/21 08:13:06;;;;;;;14.18;5.15;;;21.90;82.40;;;;;;5055726;28;20052;-77
2022/08/21 08:15:32;;;;;;;11.52;4.68;;;21.80;83.10;;;;;;5055275;28;20094;-77
2022/08/21 08:17:58;;;;;;;8.75;3.20;;;21.90;83.70;;;;;;5055291;28;20029;-77
2022/08/21 08:20:26;;;;;;;15.18;5.10;;;22.00;83.50;;;;;;5055317;28;20469;-78
2022/08/21 08:22:55;;;;;;;13.80;4.68;;;22.20;83.30;;;;;;5055254;28;20083;-77
2022/08/21 08:25:22;;;;;;;15.75;4.53;;;22.20;83.00;;;;;;5055081;28;20515;-77
2022/08/21 08:27:48;;;;;;;9.95;2.70;;;22.20;83.10;;;;;;5055186;28;20431;-77
2022/08/21 08:30:16;;;;;;;13.80;4.88;;;22.30;82.80;;;;;;5055461;28;20029;-77
2022/08/21 08:32:42;;;;;;;12.20;4.50;;;22.30;83.00;;;;;;5055315;28;20496;-77
2022/08/21 08:35:10;;;;;;;10.55;3.22;;;22.40;83.10;;;;;;5055037;28;20037;-77
2022/08/21 08:37:37;;;;;;;16.70;5.45;;;22.50;82.80;;;;;;5054599;28;20566;-77
2022/08/21 08:40:04;;;;;;;10.25;3.95;;;22.60;82.50;;;;;;5055222;28;20131;-77
2022/08/21 08:42:35;;;;;;;16.67;5.43;;;22.80;82.20;;;;;;5054820;28;20084;-77
2022/08/21 08:45:12;;;;;;;13.32;4.38;;;22.80;81.20;;;;;;5054931;28;20470;-77
2022/08/21 08:47:44;;;;;;;8.88;2.95;;;22.90;81.00;;;;;;5054679;28;20028;-78
2022/08/21 08:50:21;;;;;;;12.23;4.38;;;22.90;81.20;;;;;;5054410;28;20060;-77
2022/08/21 08:52:59;;;;;;;10.75;3.00;;;23.00;80.50;;;;;;5054507;28;20055;-77
2022/08/21 08:55:40;;;;;;;15.93;4.57;;;23.00;80.20;;;;;;5054524;28;20025;-78
2022/08/21 08:58:06;;;;;;;12.00;3.85;;;23.10;80.20;;;;;;5054259;28;20025;-77
2022/08/21 09:00:32;;;;;;;14.43;4.30;;;23.20;79.70;;;;;;5054529;28;20043;-77
2022/08/21 09:03:01;;;;;;;11.82;3.63;;;23.20;79.50;;;;;;5054522;28;20094;-77
2022/08/21 09:05:29;;;;;;;14.07;3.42;;;23.30;79.60;;;;;;5054521;28;20029;-77
2022/08/21 09:08:14;;;;;;;8.90;1.98;;;23.20;79.50;;;;;;5054248;28;20060;-77
2022/08/21 09:10:57;;;;;;;11.05;3.03;;;23.30;79.70;;;;;;5054318;28;20021;-78
2022/08/21 09:13:44;;;;;;;11.93;3.63;;;23.50;79.40;;;;;;5054326;28;20033;-77
2022/08/21 09:16:46;;;;;;;10.02;2.95;;;23.70;77.50;;;;;;5054224;28;20017;-77
2022/08/21 09:19:39;;;;;;;12.73;2.83;;;23.80;77.20;;;;;;5054096;28;20384;-77
2022/08/21 09:22:30;;;;;;;9.68;2.20;;;23.90;77.60;;;;;;5054348;28;20036;-78
2022/08/21 09:25:15;;;;;;;7.40;1.83;;;24.10;76.30;;;;;;5053812;28;20095;-78
2022/08/21 09:27:40;;;;;;;8.45;1.77;;;24.10;75.60;;;;;;5053934;28;20021;-77
2022/08/21 09:30:07;;;;;;;9.38;2.17;;;24.20;75.80;;;;;;5053954;28;20117;-77
2022/08/21 09:32:35;;;;;;;10.00;1.98;;;24.40;75.60;;;;;;5054234;28;20032;-78
2022/08/21 09:35:04;;;;;;;10.05;2.40;;;24.50;73.80;;;;;;5053419;28;20029;-78
2022/08/21 09:37:34;;;;;;;7.45;1.90;;;24.50;72.90;;;;;;5053764;28;20469;-78
2022/08/21 09:40:01;;;;;;;6.82;1.98;;;24.50;73.10;;;;;;5053631;28;20033;-77
2022/08/21 09:42:31;;;;;;;9.38;2.22;;;24.60;73.50;;;;;;5054220;28;20021;-77
2022/08/21 09:45:09;;;;;;;9.15;2.05;;;24.70;72.80;;;;;;5053999;28;20411;-77
2022/08/21 09:47:35;;;;;;;8.02;1.77;;;24.80;71.50;;;;;;5053738;28;20028;-78
2022/08/21 09:50:20;;;;;;;8.50;1.55;;;24.70;70.70;;;;;;5053672;28;20024;-78
2022/08/21 09:53:01;;;;;;;9.05;1.27;;;24.70;70.40;;;;;;5053907;28;20029;-77
2022/08/21 09:58:33;;;;;;;5.63;1.33;;;24.70;70.20;;;;;;5053393;28;20504;-78
2022/08/21 10:01:02;;;;;;;6.43;1.60;;;24.60;70.30;;;;;;5053294;28;20060;-79
2022/08/21 10:03:28;;;;;;;9.75;1.52;;;24.70;70.40;;;;;;5053038;28;20414;-78
2022/08/21 10:06:05;;;;;;;5.47;1.27;;;24.70;70.30;;;;;;5053213;28;20139;-77
2022/08/21 10:08:33;;;;;;;8.75;1.65;;;24.70;69.70;;;;;;5053202;28;20494;-78
2022/08/21 10:11:14;;;;;;;8.15;1.38;;;24.70;70.20;;;;;;5053166;28;20037;-78
2022/08/21 10:13:54;;;;;;;7.05;1.08;;;24.80;69.00;;;;;;5053237;28;20063;-78
2022/08/21 10:16:25;;;;;;;5.38;0.88;;;24.90;69.10;;;;;;5053534;28;20079;-78
2022/08/21 10:18:51;;;;;;;10.73;1.60;;;24.90;68.10;;;;;;5052903;28;20535;-78
2022/08/21 10:21:16;;;;;;;10.25;1.70;;;24.90;68.70;;;;;;5052810;28;20041;-77
2022/08/21 10:23:59;;;;;;;10.77;1.50;;;24.80;68.60;;;;;;5053065;28;20041;-78
2022/08/21 10:26:32;;;;;;;8.43;1.20;;;24.80;69.40;;;;;;5053353;28;20029;-78
2022/08/21 10:29:03;;;;;;;5.93;1.67;;;24.80;68.70;;;;;;5052826;28;20025;-78
2022/08/21 10:31:47;;;;;;;9.32;1.50;;;24.90;68.90;;;;;;5053470;28;20021;-78
2022/08/21 10:34:45;;;;;;;5.93;1.10;;;25.00;67.80;;;;;;5052763;28;20029;-78
2022/08/21 10:37:17;;;;;;;10.98;1.75;;;24.90;67.50;;;;;;5040634;28;20033;-78
2022/08/21 10:40:03;;;;;;;5.13;0.90;;;25.10;67.50;;;;;;5052974;28;20499;-78
2022/08/21 10:42:46;;;;;;;6.72;1.20;;;25.10;67.40;;;;;;5052776;28;20032;-78
2022/08/21 10:45:46;;;;;;;7.72;1.27;;;25.20;66.60;;;;;;5053193;28;20017;-78
2022/08/21 10:48:41;;;;;;;6.82;0.90;;;25.10;66.50;;;;;;5052940;28;20032;-78
2022/08/21 10:51:17;;;;;;;5.45;1.25;;;25.20;67.30;;;;;;5050516;28;20061;-78
2022/08/21 10:53:59;;;;;;;5.63;1.08;;;25.30;66.70;;;;;;5053072;28;20025;-78
2022/08/21 10:56:29;;;;;;;9.32;1.08;;;25.30;65.10;;;;;;5052521;28;20392;-78
2022/08/21 10:59:02;;;;;;;7.85;1.10;;;25.30;65.70;;;;;;5052558;28;20044;-78
2022/08/21 11:01:41;;;;;;;7.18;1.15;;;25.30;65.30;;;;;;5052739;28;20037;-78
2022/08/21 11:04:23;;;;;;;6.72;1.00;;;25.30;65.00;;;;;;5052417;28;20515;-78
2022/08/21 11:07:01;;;;;;;5.30;0.80;;;25.50;63.60;;;;;;5052363;28;20036;-78
2022/08/21 11:09:27;;;;;;;6.97;1.02;;;25.60;64.40;;;;;;5052667;28;20388;-78
2022/08/21 11:12:10;;;;;;;5.32;0.90;;;25.70;63.90;;;;;;5052316;28;20039;-78
2022/08/21 11:14:55;;;;;;;7.70;1.05;;;25.90;64.30;;;;;;5053091;28;20114;-78
2022/08/21 11:17:44;;;;;;;6.38;1.27;;;26.00;64.40;;;;;;5056676;28;20024;-78
2022/08/21 11:20:18;;;;;;;5.05;0.80;;;26.10;64.10;;;;;;5055953;28;20097;-78
2022/08/21 11:22:56;;;;;;;7.22;0.90;;;26.20;63.10;;;;;;5056416;28;20047;-78
2022/08/21 11:25:30;;;;;;;6.00;0.80;;;26.30;63.50;;;;;;5055890;28;20449;-78
2022/08/21 11:28:03;;;;;;;5.13;0.73;;;26.50;62.60;;;;;;5056325;28;20376;-78
2022/08/21 11:30:41;;;;;;;5.95;0.90;;;26.60;61.50;;;;;;5056161;28;20051;-78
2022/08/21 11:33:36;;;;;;;3.80;1.10;;;26.70;60.40;;;;;;5056290;28;20029;-78
2022/08/21 11:36:32;;;;;;;3.92;0.60;;;26.70;60.10;;;;;;5056578;28;20052;-78
2022/08/21 11:39:31;;;;;;;4.50;0.50;;;26.70;60.00;;;;;;5056172;28;20065;-78
2022/08/21 11:42:22;;;;;;;4.22;0.90;;;26.90;60.10;;;;;;5056315;28;20025;-79
2022/08/21 11:45:18;;;;;;;4.55;0.68;;;27.10;59.50;;;;;;5055882;28;20029;-78
2022/08/21 11:48:28;;;;;;;5.95;0.90;;;27.10;59.30;;;;;;5056235;28;20017;-78
2022/08/21 11:50:56;;;;;;;6.90;1.30;;;27.20;59.20;;;;;;5056102;28;20440;-78
2022/08/21 11:53:31;;;;;;;6.10;1.00;;;27.10;59.20;;;;;;5056005;28;20025;-78
2022/08/21 11:56:01;;;;;;;6.90;0.82;;;27.20;59.60;;;;;;5055748;28;20074;-79
2022/08/21 11:58:39;;;;;;;7.30;1.30;;;27.20;59.90;;;;;;5056126;28;20390;-79
2022/08/21 12:01:09;;;;;;;5.43;0.85;;;27.20;59.90;;;;;;5056356;28;20032;-79
2022/08/21 12:03:44;;;;;;;6.13;0.73;;;27.30;59.90;;;;;;5055765;28;20419;-79
2022/08/21 12:06:13;;;;;;;8.45;1.05;;;27.40;59.40;;;;;;5055409;28;20029;-79
2022/08/21 12:08:44;;;;;;;6.32;0.90;;;27.40;59.00;;;;;;5055712;28;20025;-79
2022/08/21 12:11:23;;;;;;;3.87;0.60;;;27.60;59.00;;;;;;5055497;28;20035;-79
2022/08/21 12:14:00;;;;;;;5.93;1.15;;;27.80;58.40;;;;;;5055400;28;20091;-79
2022/08/21 12:16:30;;;;;;;8.38;1.48;;;28.00;57.70;;;;;;5055649;28;20028;-79
2022/08/21 12:19:27;;;;;;;5.30;0.80;;;28.10;57.50;;;;;;5055368;28;20028;-79
2022/08/21 12:22:05;;;;;;;6.47;0.68;;;28.00;57.70;;;;;;5055588;28;20033;-79
2022/08/21 12:24:47;;;;;;;5.63;0.80;;;27.90;57.90;;;;;;5054735;28;20488;-79
2022/08/21 12:27:51;;;;;;;;;;;27.80;56.30;;;;;;5055374;28;20032;-80
2022/08/21 12:30:34;;;;;;;6.38;1.17;;;27.60;56.80;;;;;;5072903;28;19905;-80
2022/08/21 12:33:06;;;;;;;3.55;0.80;;;27.30;57.30;;;;;;5073159;28;20519;-80
2022/08/21 12:35:43;;;;;;;5.53;1.17;;;27.10;57.00;;;;;;5061835;28;20041;-80
2022/08/21 12:38:17;;;;;;;3.35;0.50;;;27.10;57.50;;;;;;5055128;28;20056;-80
2022/08/21 12:40:48;;;;;;;2.75;0.57;;;27.10;56.50;;;;;;5054680;28;20044;-80
2022/08/21 12:43:25;;;;;;;2.92;0.52;;;27.30;57.40;;;;;;5054930;28;20021;-80
2022/08/21 12:45:52;;;;;;;4.00;0.85;;;27.40;57.00;;;;;;5055108;28;20036;-80
2022/08/21 12:48:50;;;;;;;6.28;1.02;;;27.40;55.80;;;;;;5054691;28;20059;-80
2022/08/21 12:51:28;;;;;;;5.40;0.80;;;27.40;56.30;;;;;;5050222;28;20039;-80
2022/08/21 12:53:56;;;;;;;3.53;0.63;;;27.20;56.70;;;;;;5054755;28;20032;-80
2022/08/21 12:56:25;;;;;;;4.93;0.70;;;27.10;57.00;;;;;;5054549;28;20070;-80
2022/08/21 12:59:03;;;;;;;4.13;0.70;;;27.10;56.90;;;;;;5054618;28;20025;-80
2022/08/21 13:01:51;;;;;;;4.55;0.70;;;27.20;56.30;;;;;;5054745;28;20037;-80
2022/08/21 13:04:20;;;;;;;5.18;0.70;;;27.30;55.40;;;;;;5054344;28;20028;-80
2022/08/21 13:06:53;;;;;;;2.97;0.38;;;27.40;54.70;;;;;;5053400;28;20040;-80